createdAt,value
2019-03-18T00:01:28.305Z,2.30
2019-03-18T00:03:56.969Z,3.20
2019-03-18T00:06:22.520Z,2.20
2019-03-18T00:08:51.513Z,3.00
2019-03-18T00:11:18.569Z,1.90
2019-03-18T00:14:00.673Z,2.17
2019-03-18T00:25:30.891Z,2.30
2019-03-18T00:43:01.569Z,2.40
2019-03-18T00:51:42.937Z,1.83
2019-03-18T00:54:19.274Z,2.63
2019-03-18T01:00:26.335Z,3.27
2019-03-18T01:05:33.287Z,2.57
2019-03-18T01:07:59.381Z,2.40
2019-03-18T01:10:25.273Z,2.73
2019-03-18T01:12:50.908Z,2.30
2019-03-18T01:15:27.504Z,2.57
2019-03-18T01:17:53.319Z,2.30
2019-03-18T01:20:21.920Z,2.30
2019-03-18T01:25:49.835Z,2.63
2019-03-18T01:28:18.494Z,2.47
2019-03-18T01:30:44.163Z,2.37
2019-03-18T01:33:09.814Z,2.53
2019-03-18T01:35:36.107Z,2.27
2019-03-18T01:38:02.661Z,2.50
2019-03-18T01:40:29.425Z,2.00
2019-03-18T01:46:19.569Z,1.93
2019-03-18T01:48:45.579Z,2.40
2019-03-18T01:51:11.667Z,2.40
2019-03-18T01:53:37.603Z,2.47
2019-03-18T01:56:03.194Z,2.87
2019-03-18T01:58:29.014Z,2.70
2019-03-18T02:00:58.085Z,2.90
2019-03-18T02:03:23.754Z,3.43
2019-03-18T02:05:49.581Z,2.80
2019-03-18T02:08:15.211Z,3.17
2019-03-18T02:10:40.944Z,3.00
2019-03-18T02:13:06.537Z,2.90
2019-03-18T02:15:32.084Z,3.10
2019-03-18T02:17:58.026Z,3.63
2019-03-18T02:20:23.684Z,2.80
2019-03-18T02:22:49.385Z,2.90
2019-03-18T02:25:15.786Z,3.37
2019-03-18T02:27:47.396Z,3.30
2019-03-18T02:30:17.074Z,3.10
2019-03-18T02:32:45.602Z,3.37
2019-03-18T02:37:37.411Z,3.23
2019-03-18T02:38:14.778Z,3.57
2019-03-18T02:40:41.273Z,3.47
2019-03-18T02:43:07.001Z,3.80
2019-03-18T02:45:32.545Z,3.40
2019-03-18T02:47:58.827Z,3.80
2019-03-18T02:50:24.367Z,3.77
2019-03-18T02:52:50.083Z,2.90
2019-03-18T02:55:15.784Z,3.30
2019-03-18T02:57:42.468Z,3.07
2019-03-18T03:00:09.661Z,3.73
2019-03-18T03:02:35.440Z,3.37
2019-03-18T03:05:01.088Z,3.00
2019-03-18T03:07:27.570Z,2.50
2019-03-18T03:09:53.130Z,2.23
2019-03-18T03:12:18.810Z,2.70
2019-03-18T03:14:44.443Z,2.37
2019-03-18T03:17:10.173Z,3.13
2019-03-18T03:19:35.944Z,2.30
2019-03-18T03:22:02.842Z,2.80
2019-03-18T03:24:28.481Z,2.00
2019-03-18T03:26:54.294Z,2.27
2019-03-18T03:29:19.870Z,2.17
2019-03-18T03:31:46.532Z,2.33
2019-03-18T03:34:14.159Z,1.87
2019-03-18T03:36:39.978Z,1.83
2019-03-18T03:39:05.901Z,2.40
2019-03-18T03:41:31.704Z,2.23
2019-03-18T03:43:57.681Z,2.27
2019-03-18T03:46:23.549Z,2.50
2019-03-18T03:48:49.122Z,2.23
2019-03-18T03:51:14.702Z,2.63
2019-03-18T03:53:40.402Z,2.60
2019-03-18T03:56:07.252Z,2.67
2019-03-18T03:58:32.821Z,2.20
2019-03-18T04:00:58.560Z,2.53
2019-03-18T04:03:37.654Z,2.07
2019-03-18T04:05:52.054Z,2.67
2019-03-18T04:08:17.670Z,2.03
2019-03-18T04:10:43.302Z,1.93
2019-03-18T04:13:09.289Z,2.33
2019-03-18T04:15:34.939Z,2.20
2019-03-18T04:18:00.573Z,2.63
2019-03-18T04:20:26.185Z,2.43
2019-03-18T04:22:52.132Z,2.70
2019-03-18T04:25:17.779Z,2.50
2019-03-18T04:27:43.359Z,2.43
2019-03-18T04:30:10.865Z,2.07
2019-03-18T04:32:43.406Z,2.50
2019-03-18T04:35:10.101Z,2.47
2019-03-18T04:37:41.609Z,3.20
2019-03-18T04:40:08.146Z,2.40
2019-03-18T04:42:34.997Z,2.50
2019-03-18T04:45:00.589Z,3.10
2019-03-18T04:47:26.249Z,2.53
2019-03-18T04:49:52.070Z,2.77
2019-03-18T04:52:17.722Z,4.20
2019-03-18T04:54:43.441Z,4.33
2019-03-18T04:57:09.079Z,3.10
2019-03-18T04:59:34.801Z,4.30
2019-03-18T05:02:00.356Z,2.90
2019-03-18T05:04:26.057Z,2.63
2019-03-18T05:06:52.933Z,2.73
2019-03-18T05:09:32.441Z,2.57
2019-03-18T05:12:02.732Z,2.30
2019-03-18T05:14:37.076Z,2.80
2019-03-18T05:17:02.744Z,2.27
2019-03-18T05:19:28.299Z,2.57
2019-03-18T05:21:53.857Z,2.33
2019-03-18T05:24:19.532Z,2.30
2019-03-18T05:26:45.160Z,1.80
2019-03-18T05:29:10.791Z,2.50
2019-03-18T05:31:36.425Z,2.83
2019-03-18T05:34:02.277Z,2.60
2019-03-18T05:36:28.157Z,2.70
2019-03-18T05:38:54.419Z,2.80
2019-03-18T05:41:21.291Z,2.87
2019-03-18T05:43:47.009Z,3.07
2019-03-18T05:46:12.593Z,3.03
2019-03-18T05:48:38.176Z,3.73
2019-03-18T05:51:05.058Z,3.90
2019-03-18T05:53:30.796Z,3.10
2019-03-18T05:55:56.479Z,3.93
2019-03-18T05:58:21.999Z,3.20
2019-03-18T06:00:47.688Z,3.90
2019-03-18T06:03:15.243Z,4.20
2019-03-18T06:05:41.251Z,4.33
2019-03-18T06:08:06.824Z,4.30
2019-03-18T06:10:32.408Z,4.77
2019-03-18T06:12:59.482Z,3.40
2019-03-18T06:15:26.282Z,3.53
2019-03-18T06:17:57.655Z,3.70
2019-03-18T06:20:24.495Z,4.13
2019-03-18T06:22:50.495Z,4.70
2019-03-18T06:25:16.202Z,3.93
2019-03-18T06:27:41.840Z,4.30
2019-03-18T06:30:09.808Z,4.70
2019-03-18T06:32:37.569Z,3.90
2019-03-18T06:35:04.068Z,4.20
2019-03-18T06:37:29.614Z,4.67
2019-03-18T06:39:56.955Z,4.23
2019-03-18T06:42:25.895Z,4.37
2019-03-18T06:44:54.728Z,3.80
2019-03-18T06:47:22.866Z,4.20
2019-03-18T06:49:48.534Z,5.57
2019-03-18T06:52:14.253Z,4.47
2019-03-18T06:54:39.936Z,5.03
2019-03-18T06:57:05.551Z,4.23
2019-03-18T06:59:31.215Z,4.73
2019-03-18T07:01:57.121Z,3.70
2019-03-18T07:04:22.724Z,5.20
2019-03-18T07:06:48.643Z,3.50
2019-03-18T07:09:14.195Z,5.57
2019-03-18T07:11:39.979Z,4.30
2019-03-18T07:14:05.521Z,6.00
2019-03-18T07:16:31.203Z,4.57
2019-03-18T07:18:57.031Z,4.03
2019-03-18T07:21:22.631Z,3.70
2019-03-18T07:23:48.272Z,5.03
2019-03-18T07:26:14.077Z,4.00
2019-03-18T07:28:39.700Z,5.20
2019-03-18T07:31:06.328Z,5.13
2019-03-18T07:33:31.927Z,4.93
2019-03-18T07:35:57.573Z,5.37
2019-03-18T07:38:23.197Z,5.03
2019-03-18T07:40:48.797Z,5.57
2019-03-18T07:43:14.556Z,4.83
2019-03-18T07:45:40.193Z,4.80
2019-03-18T07:48:06.573Z,4.03
2019-03-18T07:50:32.398Z,5.07
2019-03-18T07:52:58.067Z,4.77
2019-03-18T07:55:24.584Z,4.77
2019-03-18T07:57:50.339Z,5.20
2019-03-18T08:00:16.036Z,5.27
2019-03-18T08:02:41.704Z,4.03
2019-03-18T08:05:07.979Z,3.47
2019-03-18T08:07:33.542Z,6.00
2019-03-18T08:09:59.088Z,4.83
2019-03-18T08:12:24.657Z,4.60
2019-03-18T08:14:50.238Z,4.40
2019-03-18T08:17:15.895Z,4.30
2019-03-18T08:19:41.475Z,4.87
2019-03-18T08:22:07.377Z,4.10
2019-03-18T08:24:33.062Z,5.03
2019-03-18T08:26:59.695Z,5.20
2019-03-18T08:29:25.392Z,4.43
2019-03-18T08:31:50.957Z,4.40
2019-03-18T08:34:16.502Z,5.50
2019-03-18T08:36:42.095Z,4.50
2019-03-18T08:39:07.659Z,3.93
2019-03-18T08:41:33.223Z,4.70
2019-03-18T08:43:58.807Z,3.97
2019-03-18T08:46:24.977Z,4.03
2019-03-18T08:48:55.700Z,4.23
2019-03-18T08:51:18.138Z,4.10
2019-03-18T08:53:43.693Z,3.10
2019-03-18T08:56:09.316Z,3.47
2019-03-18T08:58:35.123Z,3.87
2019-03-18T09:01:03.165Z,3.50
2019-03-18T09:03:29.007Z,4.17
2019-03-18T09:05:54.590Z,4.00
2019-03-18T09:08:20.532Z,3.67
2019-03-18T09:10:46.242Z,3.60
2019-03-18T09:13:12.087Z,4.40
2019-03-18T09:15:37.689Z,3.93
2019-03-18T09:18:03.320Z,3.97
2019-03-18T09:20:28.926Z,3.97
2019-03-18T09:22:54.467Z,3.70
2019-03-18T09:25:20.094Z,5.27
2019-03-18T09:27:45.708Z,3.53
2019-03-18T09:30:13.148Z,4.43
2019-03-18T09:32:38.698Z,3.50
2019-03-18T09:35:04.886Z,3.10
2019-03-18T09:37:30.720Z,3.00
2019-03-18T09:39:56.346Z,2.67
2019-03-18T09:42:22.177Z,2.30
2019-03-18T09:44:47.908Z,2.77
2019-03-18T09:47:13.469Z,2.00
2019-03-18T09:49:39.107Z,2.03
2019-03-18T09:52:04.707Z,2.70
2019-03-18T09:54:30.361Z,2.60
2019-03-18T09:56:57.332Z,2.90
2019-03-18T09:59:23.847Z,3.17
2019-03-18T10:01:49.413Z,3.63
2019-03-18T10:04:14.946Z,3.03
2019-03-18T10:06:40.647Z,3.80
2019-03-18T10:09:12.590Z,3.67
2019-03-18T10:11:38.208Z,4.60
2019-03-18T10:14:03.875Z,5.13
2019-03-18T10:16:29.546Z,5.63
2019-03-18T10:18:55.200Z,5.53
2019-03-18T10:21:20.840Z,5.37
2019-03-18T10:23:46.420Z,5.50
2019-03-18T10:26:12.275Z,5.53
2019-03-18T10:28:37.981Z,4.73
2019-03-18T10:31:03.600Z,5.87
2019-03-18T10:33:29.381Z,5.37
2019-03-18T10:35:57.110Z,5.33
2019-03-18T10:38:22.736Z,5.60
2019-03-18T10:40:48.307Z,5.00
2019-03-18T10:43:14.168Z,4.63
2019-03-18T10:45:39.771Z,5.77
2019-03-18T10:48:08.318Z,4.93
2019-03-18T10:50:33.895Z,5.03
2019-03-18T10:52:59.548Z,5.10
2019-03-18T10:55:25.099Z,4.80
2019-03-18T10:57:50.759Z,5.67
2019-03-18T11:00:17.063Z,4.70
2019-03-18T11:02:45.138Z,4.93
2019-03-18T11:05:10.372Z,5.70
2019-03-18T11:07:36.017Z,5.33
2019-03-18T11:10:02.350Z,5.60
2019-03-18T11:12:27.968Z,5.53
2019-03-18T11:14:53.532Z,5.77
2019-03-18T11:17:20.580Z,5.60
2019-03-18T11:19:57.587Z,5.67
2019-03-18T11:22:13.888Z,6.03
2019-03-18T11:24:39.609Z,6.33
2019-03-18T11:27:05.354Z,6.00
2019-03-18T11:29:30.897Z,5.70
2019-03-18T11:31:56.532Z,6.00
2019-03-18T11:34:22.147Z,6.33
2019-03-18T11:36:47.686Z,4.23
2019-03-18T11:39:13.275Z,3.17
2019-03-18T11:41:38.989Z,2.80
2019-03-18T11:44:04.572Z,3.30
2019-03-18T11:46:31.174Z,2.20
2019-03-18T11:48:56.723Z,3.07
2019-03-18T11:51:22.257Z,3.70
2019-03-18T11:53:47.844Z,3.00
2019-03-18T11:56:13.451Z,4.13
2019-03-18T11:58:38.997Z,3.43
2019-03-18T12:01:04.542Z,3.40
2019-03-18T12:03:30.138Z,3.13
2019-03-18T12:05:55.890Z,4.43
2019-03-18T12:08:21.417Z,4.47
2019-03-18T12:10:47.058Z,4.67
2019-03-18T12:13:12.630Z,3.83
2019-03-18T12:15:38.265Z,4.37
2019-03-18T12:18:03.915Z,3.80
2019-03-18T12:20:32.872Z,4.60
2019-03-18T12:22:57.445Z,5.50
2019-03-18T12:25:23.059Z,4.50
2019-03-18T12:27:49.033Z,5.10
2019-03-18T12:30:19.609Z,4.20
2019-03-18T12:32:45.206Z,5.30
2019-03-18T12:35:10.809Z,5.17
2019-03-18T12:37:36.452Z,4.87
2019-03-18T12:40:02.150Z,4.60
2019-03-18T12:42:28.731Z,4.73
2019-03-18T12:44:54.288Z,5.17
2019-03-18T12:47:19.956Z,4.60
2019-03-18T12:49:45.667Z,6.90
2019-03-18T12:52:12.452Z,6.50
2019-03-18T12:54:38.170Z,6.03
2019-03-18T12:57:04.416Z,3.70
2019-03-18T12:59:30.063Z,4.20
2019-03-18T13:01:55.789Z,3.83
2019-03-18T13:04:21.463Z,4.70
2019-03-18T13:06:47.147Z,4.80
2019-03-18T13:09:13.013Z,4.73
2019-03-18T13:11:38.563Z,5.10
2019-03-18T13:14:04.824Z,5.73
2019-03-18T13:16:30.385Z,4.63
2019-03-18T13:18:56.953Z,5.00
2019-03-18T13:21:22.544Z,5.17
2019-03-18T13:23:48.117Z,4.33
2019-03-18T13:26:13.722Z,4.50
2019-03-18T13:28:39.287Z,4.00
2019-03-18T13:31:05.207Z,4.40
2019-03-18T13:33:30.848Z,3.90
2019-03-18T13:35:56.409Z,5.10
2019-03-18T13:38:22.030Z,4.00
2019-03-18T13:40:47.608Z,4.73
2019-03-18T13:43:13.201Z,5.10
2019-03-18T13:45:38.913Z,4.90
2019-03-18T13:48:04.492Z,5.03
2019-03-18T13:50:30.064Z,5.10
2019-03-18T13:52:55.629Z,4.77
2019-03-18T13:55:21.184Z,4.57
2019-03-18T13:57:46.820Z,4.30
2019-03-18T14:00:14.280Z,4.43
2019-03-18T14:02:40.188Z,5.57
2019-03-18T14:05:06.567Z,5.07
2019-03-18T14:07:33.230Z,5.00
2019-03-18T14:09:58.820Z,5.53
2019-03-18T14:12:24.432Z,4.93
2019-03-18T14:14:50.083Z,5.40
2019-03-18T14:17:15.816Z,5.33
2019-03-18T14:19:41.680Z,5.50
2019-03-18T14:22:07.290Z,5.97
2019-03-18T14:24:32.840Z,6.73
2019-03-18T14:26:58.475Z,6.90
2019-03-18T14:29:25.062Z,5.53
2019-03-18T14:31:51.150Z,5.47
2019-03-18T14:34:16.950Z,6.00
2019-03-18T14:36:42.972Z,8.50
2019-03-18T14:39:08.897Z,7.43
2019-03-18T14:41:34.503Z,4.27
2019-03-18T14:44:00.109Z,5.40
2019-03-18T14:46:25.732Z,5.23
2019-03-18T14:48:51.471Z,5.30
2019-03-18T14:51:17.415Z,4.53
2019-03-18T14:53:43.018Z,4.57
2019-03-18T14:56:08.668Z,5.87
2019-03-18T14:58:34.451Z,5.43
2019-03-18T15:01:00.764Z,4.40
2019-03-18T15:03:27.094Z,4.70
2019-03-18T15:05:52.832Z,4.10
2019-03-18T15:08:18.666Z,4.73
2019-03-18T15:10:44.735Z,4.93
2019-03-18T15:13:10.288Z,5.00
2019-03-18T15:15:35.883Z,5.10
2019-03-18T15:18:01.489Z,4.57
2019-03-18T15:20:27.648Z,5.70
2019-03-18T15:22:53.309Z,3.60
2019-03-18T15:25:20.772Z,4.87
2019-03-18T15:27:46.391Z,4.13
2019-03-18T15:30:13.160Z,4.10
2019-03-18T15:32:38.956Z,4.07
2019-03-18T15:35:05.303Z,3.93
2019-03-18T15:37:31.013Z,4.93
2019-03-18T15:39:56.595Z,6.33
2019-03-18T15:42:22.361Z,6.80
2019-03-18T15:44:48.053Z,5.33
2019-03-18T15:47:13.639Z,5.47
2019-03-18T15:49:39.205Z,6.80
2019-03-18T15:52:11.213Z,4.77
2019-03-18T15:54:33.092Z,4.67
2019-03-18T15:56:58.694Z,4.90
2019-03-18T15:59:24.412Z,4.73
2019-03-18T16:01:50.056Z,6.37
2019-03-18T16:04:15.665Z,5.30
2019-03-18T16:06:41.424Z,5.10
2019-03-18T16:09:07.182Z,5.67
2019-03-18T16:11:32.802Z,5.00
2019-03-18T16:13:58.383Z,5.43
2019-03-18T16:16:23.948Z,7.90
2019-03-18T16:18:49.530Z,5.10
2019-03-18T16:21:15.279Z,5.77
2019-03-18T16:23:41.011Z,5.67
2019-03-18T16:26:06.755Z,6.90
2019-03-18T16:28:32.632Z,5.97
2019-03-18T16:30:58.510Z,7.30
2019-03-18T16:33:24.346Z,6.20
2019-03-18T16:35:50.044Z,5.37
2019-03-18T16:38:15.666Z,4.83
2019-03-18T16:40:41.246Z,5.33
2019-03-18T16:43:06.790Z,6.10
2019-03-18T16:45:32.329Z,5.60
2019-03-18T16:47:57.929Z,5.87
2019-03-18T16:50:24.159Z,6.27
2019-03-18T16:52:49.830Z,6.60
2019-03-18T16:55:15.454Z,5.80
2019-03-18T16:57:41.032Z,6.53
2019-03-18T17:00:11.733Z,6.53
2019-03-18T17:02:37.412Z,6.30
2019-03-18T17:05:03.627Z,5.77
2019-03-18T17:07:29.381Z,6.40
2019-03-18T17:09:55.038Z,5.40
2019-03-18T17:12:20.722Z,5.37
2019-03-18T17:14:46.310Z,5.17
2019-03-18T17:17:12.075Z,6.77
2019-03-18T17:19:37.658Z,6.00
2019-03-18T17:22:03.373Z,5.83
2019-03-18T17:24:28.915Z,5.33
2019-03-18T17:26:54.650Z,4.50
2019-03-18T17:29:20.399Z,5.50
2019-03-18T17:31:45.992Z,4.70
2019-03-18T17:34:11.570Z,5.40
2019-03-18T17:36:37.202Z,5.23
2019-03-18T17:39:05.049Z,6.30
2019-03-18T17:41:31.167Z,4.53
2019-03-18T17:43:56.905Z,5.57
2019-03-18T17:46:25.155Z,3.77
2019-03-18T17:48:50.899Z,4.63
2019-03-18T17:51:18.681Z,5.30
2019-03-18T17:53:44.341Z,4.00
2019-03-18T17:56:10.105Z,3.90
2019-03-18T17:58:35.741Z,6.30
2019-03-18T18:01:03.573Z,5.37
2019-03-18T18:03:29.461Z,4.87
2019-03-18T18:05:55.922Z,4.53
2019-03-18T18:08:21.687Z,5.53
2019-03-18T18:10:47.302Z,5.27
2019-03-18T18:13:12.956Z,4.10
2019-03-18T18:15:38.616Z,4.40
2019-03-18T18:18:04.296Z,5.00
2019-03-18T18:20:30.042Z,7.63
2019-03-18T18:22:55.643Z,6.40
2019-03-18T18:25:21.369Z,7.03
2019-03-18T18:27:46.999Z,7.03
2019-03-18T18:30:13.171Z,4.70
2019-03-18T18:32:38.915Z,3.60
2019-03-18T18:35:06.216Z,4.27
2019-03-18T18:37:31.774Z,4.20
2019-03-18T18:39:57.336Z,3.73
2019-03-18T18:42:25.077Z,2.97
2019-03-18T18:44:51.221Z,3.10
2019-03-18T18:47:17.079Z,3.13
2019-03-18T18:49:43.707Z,2.87
2019-03-18T18:52:09.791Z,3.73
2019-03-18T18:54:36.853Z,3.10
2019-03-18T18:57:03.127Z,3.30
2019-03-18T18:59:28.752Z,3.00
2019-03-18T19:01:55.007Z,3.20
2019-03-18T19:04:20.897Z,4.23
2019-03-18T19:06:47.616Z,3.00
2019-03-18T19:09:13.603Z,3.97
2019-03-18T19:11:39.323Z,4.60
2019-03-18T19:14:06.080Z,3.80
2019-03-18T19:16:32.626Z,3.57
2019-03-18T19:18:58.426Z,3.50
2019-03-18T19:21:24.170Z,3.83
2019-03-18T19:23:53.051Z,3.70
2019-03-18T19:26:18.942Z,4.10
2019-03-18T19:28:44.673Z,3.60
2019-03-18T19:31:10.475Z,4.80
2019-03-18T19:33:36.277Z,4.30
2019-03-18T19:36:01.923Z,4.07
2019-03-18T19:38:28.252Z,4.50
2019-03-18T19:40:54.548Z,4.23
2019-03-18T19:43:21.113Z,3.70
2019-03-18T19:45:46.924Z,4.00
2019-03-18T19:48:12.472Z,5.00
2019-03-18T19:50:38.593Z,4.83
2019-03-18T19:53:04.622Z,3.03
2019-03-18T19:55:32.067Z,3.30
2019-03-18T19:57:58.984Z,3.60
2019-03-18T20:00:27.063Z,4.70
2019-03-18T20:02:58.966Z,9.67
2019-03-18T20:05:31.577Z,3.77
2019-03-18T20:07:58.351Z,4.10
2019-03-18T20:10:24.774Z,5.10
2019-03-18T20:12:50.469Z,4.20
2019-03-18T20:15:16.656Z,4.23
2019-03-18T20:17:46.566Z,4.40
2019-03-18T20:20:18.027Z,4.10
2019-03-18T20:22:43.893Z,4.90
2019-03-18T20:25:10.232Z,3.30
2019-03-18T20:27:35.959Z,3.87
2019-03-18T20:30:04.278Z,4.17
2019-03-18T20:32:29.238Z,4.53
2019-03-18T20:34:54.831Z,4.60
2019-03-18T20:37:20.396Z,4.20
2019-03-18T20:39:46.099Z,4.37
2019-03-18T20:42:12.103Z,4.23
2019-03-18T20:44:37.822Z,3.73
2019-03-18T20:47:04.939Z,4.63
2019-03-18T20:49:31.698Z,4.07
2019-03-18T20:52:16.257Z,3.63
2019-03-18T20:54:34.700Z,5.67
2019-03-18T20:57:00.881Z,6.00
2019-03-18T20:59:29.654Z,3.83
2019-03-18T21:01:55.535Z,3.97
2019-03-18T21:04:21.219Z,3.97
2019-03-18T21:06:46.784Z,3.90
2019-03-18T21:09:12.792Z,3.83
2019-03-18T21:11:38.465Z,4.30
2019-03-18T21:14:06.035Z,3.60
2019-03-18T21:16:31.915Z,3.80
2019-03-18T21:18:58.909Z,3.97
2019-03-18T21:21:24.622Z,3.50
2019-03-18T21:23:52.790Z,4.77
2019-03-18T21:26:18.505Z,4.43
2019-03-18T21:28:49.235Z,4.40
2019-03-18T21:31:16.905Z,3.77
2019-03-18T21:33:42.809Z,3.83
2019-03-18T21:36:25.179Z,3.13
2019-03-18T21:38:41.084Z,3.70
2019-03-18T21:41:07.176Z,5.40
2019-03-18T21:43:33.000Z,4.20
2019-03-18T21:45:58.566Z,4.90
2019-03-18T21:48:24.321Z,4.40
2019-03-18T21:50:50.084Z,4.27
2019-03-18T21:53:15.864Z,4.27
2019-03-18T21:55:42.466Z,3.67
2019-03-18T21:58:08.082Z,4.40
2019-03-18T22:00:33.719Z,5.50
2019-03-18T22:02:59.565Z,4.83
2019-03-18T22:05:25.471Z,5.17
2019-03-18T22:07:51.352Z,4.40
2019-03-18T22:10:19.783Z,4.93
2019-03-18T22:12:45.355Z,3.70
2019-03-18T22:15:11.841Z,3.83
2019-03-18T22:17:37.590Z,4.27
2019-03-18T22:20:04.901Z,5.60
2019-03-18T22:22:30.643Z,3.90
2019-03-18T22:24:56.353Z,5.10
2019-03-18T22:27:21.949Z,4.30
2019-03-18T22:29:47.785Z,4.13
2019-03-18T22:32:13.605Z,4.10
2019-03-18T22:34:39.196Z,5.00
2019-03-18T22:37:04.957Z,3.97
2019-03-18T22:39:30.779Z,4.20
2019-03-18T22:41:56.419Z,4.50
2019-03-18T22:44:24.051Z,4.10
2019-03-18T22:46:49.870Z,8.27
2019-03-18T22:49:15.570Z,5.00
2019-03-18T22:51:41.624Z,4.93
2019-03-18T22:54:07.310Z,4.50
2019-03-18T22:56:32.955Z,4.10
2019-03-18T22:58:58.525Z,3.83
2019-03-18T23:01:24.257Z,4.33
2019-03-18T23:03:49.910Z,3.57
2019-03-18T23:06:15.478Z,4.03
2019-03-18T23:08:41.063Z,7.47
2019-03-18T23:11:06.663Z,5.23
2019-03-18T23:13:35.786Z,3.87
2019-03-18T23:16:01.472Z,4.23
2019-03-18T23:18:27.025Z,4.77
2019-03-18T23:20:52.589Z,5.60
2019-03-18T23:23:20.343Z,6.30
2019-03-18T23:25:45.914Z,10.90
2019-03-18T23:28:12.134Z,4.90
2019-03-18T23:30:37.986Z,3.87
2019-03-18T23:33:03.664Z,4.23
2019-03-18T23:35:29.435Z,3.40
2019-03-18T23:37:55.047Z,4.20
2019-03-18T23:40:20.682Z,4.37
2019-03-18T23:42:46.230Z,4.27
2019-03-18T23:45:12.165Z,4.70
2019-03-18T23:47:39.756Z,4.20
2019-03-18T23:50:09.861Z,6.50
2019-03-18T23:52:35.700Z,4.63
2019-03-18T23:55:01.641Z,3.10
2019-03-18T23:57:27.200Z,3.97
2019-03-18T23:59:52.811Z,3.33
